createdAt,value
2019-05-16T00:01:19.229Z,10.40
2019-05-16T00:03:49.123Z,10.40
2019-05-16T00:06:18.819Z,10.40
2019-05-16T00:08:48.387Z,10.30
2019-05-16T00:11:18.153Z,10.30
2019-05-16T00:13:48.907Z,10.40
2019-05-16T00:16:18.938Z,10.40
2019-05-16T00:18:48.589Z,10.60
2019-05-16T00:21:18.371Z,10.60
2019-05-16T00:23:48.667Z,10.60
2019-05-16T00:26:19.737Z,10.70
2019-05-16T00:28:49.775Z,10.80
2019-05-16T00:31:19.415Z,10.80
2019-05-16T00:33:49.006Z,10.70
2019-05-16T00:36:19.097Z,10.80
2019-05-16T00:38:49.217Z,10.80
2019-05-16T00:41:18.930Z,10.90
2019-05-16T00:43:48.738Z,10.90
2019-05-16T00:46:20.078Z,10.80
2019-05-16T00:48:50.063Z,10.90
2019-05-16T00:51:19.919Z,10.90
2019-05-16T00:53:49.766Z,10.80
2019-05-16T00:56:20.054Z,10.80
2019-05-16T00:58:49.458Z,10.90
2019-05-16T01:01:19.216Z,10.90
2019-05-16T01:03:48.771Z,10.90
2019-05-16T01:06:22.818Z,10.80
2019-05-16T01:08:49.995Z,10.80
2019-05-16T01:11:19.603Z,10.80
2019-05-16T01:13:49.267Z,10.80
2019-05-16T01:16:18.902Z,10.80
2019-05-16T01:18:48.834Z,10.80
2019-05-16T01:21:18.817Z,10.70
2019-05-16T01:23:48.800Z,10.80
2019-05-16T01:26:18.723Z,10.80
2019-05-16T01:28:48.469Z,10.70
2019-05-16T01:31:19.165Z,10.80
2019-05-16T01:33:48.976Z,10.80
2019-05-16T01:36:32.985Z,10.90
2019-05-16T01:38:50.001Z,10.90
2019-05-16T01:41:19.780Z,10.90
2019-05-16T01:43:49.483Z,11.00
2019-05-16T01:46:19.269Z,11.00
2019-05-16T01:48:49.169Z,11.00
2019-05-16T01:51:18.791Z,11.00
2019-05-16T01:53:48.921Z,10.90
2019-05-16T01:56:19.465Z,10.80
2019-05-16T01:58:49.670Z,10.90
2019-05-16T02:01:19.788Z,10.80
2019-05-16T02:03:49.969Z,10.80
2019-05-16T02:06:19.524Z,10.60
2019-05-16T02:08:49.644Z,10.70
2019-05-16T02:11:19.506Z,10.60
2019-05-16T02:13:49.467Z,10.50
2019-05-16T02:16:19.029Z,10.60
2019-05-16T02:18:49.014Z,10.70
2019-05-16T02:21:18.721Z,10.70
2019-05-16T02:23:51.495Z,10.70
2019-05-16T02:26:20.048Z,10.60
2019-05-16T02:28:50.696Z,10.70
2019-05-16T02:31:22.854Z,10.70
2019-05-16T02:33:52.373Z,10.70
2019-05-16T02:36:22.049Z,10.80
2019-05-16T02:38:55.646Z,10.80
2019-05-16T02:41:23.295Z,10.90
2019-05-16T02:43:53.102Z,10.90
2019-05-16T02:46:22.807Z,10.90
2019-05-16T02:48:52.323Z,10.90
2019-05-16T02:51:21.889Z,10.90
2019-05-16T02:53:51.760Z,10.90
2019-05-16T02:56:21.567Z,10.90
2019-05-16T02:58:52.055Z,10.90
2019-05-16T03:01:22.034Z,10.80
2019-05-16T03:03:52.076Z,10.80
2019-05-16T03:06:21.992Z,10.90
2019-05-16T03:08:54.093Z,10.90
2019-05-16T03:11:24.883Z,10.90
2019-05-16T03:13:55.575Z,10.80
2019-05-16T03:16:26.850Z,10.70
2019-05-16T03:18:57.185Z,10.60
2019-05-16T03:21:30.888Z,10.70
2019-05-16T03:24:00.984Z,10.60
2019-05-16T03:26:31.413Z,10.60
2019-05-16T03:29:01.232Z,10.50
2019-05-16T03:31:33.994Z,10.50
2019-05-16T03:34:07.355Z,10.40
2019-05-16T03:36:34.332Z,10.40
2019-05-16T03:39:06.025Z,10.40
2019-05-16T03:41:35.804Z,10.40
2019-05-16T03:44:05.748Z,10.40
2019-05-16T03:46:35.166Z,10.40
2019-05-16T03:49:04.884Z,10.30
2019-05-16T03:51:34.123Z,10.40
2019-05-16T03:54:03.401Z,10.30
2019-05-16T03:56:32.599Z,10.30
2019-05-16T03:59:01.859Z,10.30
2019-05-16T04:01:31.506Z,10.30
2019-05-16T04:04:01.621Z,10.40
2019-05-16T04:06:31.291Z,10.40
2019-05-16T04:09:01.598Z,10.40
2019-05-16T04:11:32.134Z,10.40
2019-05-16T04:14:01.961Z,10.50
2019-05-16T04:16:31.641Z,10.60
2019-05-16T04:19:01.907Z,10.50
2019-05-16T04:21:32.519Z,10.50
2019-05-16T04:24:01.741Z,10.50
2019-05-16T04:26:35.265Z,10.60
2019-05-16T04:29:01.917Z,10.50
2019-05-16T04:31:31.157Z,10.60
2019-05-16T04:34:01.260Z,10.60
2019-05-16T04:36:32.644Z,10.60
2019-05-16T04:39:02.408Z,10.80
2019-05-16T04:41:31.743Z,10.70
2019-05-16T04:44:04.453Z,10.80
2019-05-16T04:46:32.231Z,10.80
2019-05-16T04:49:01.890Z,10.80
2019-05-16T04:51:31.309Z,10.80
2019-05-16T04:54:01.955Z,11.00
2019-05-16T04:56:31.360Z,10.90
2019-05-16T04:59:00.845Z,11.00
2019-05-16T05:01:30.715Z,11.10
2019-05-16T05:04:10.174Z,11.00
2019-05-16T05:06:31.531Z,10.80
2019-05-16T05:09:03.410Z,10.90
2019-05-16T05:11:31.742Z,11.00
2019-05-16T05:14:01.115Z,11.10
2019-05-16T05:16:30.749Z,11.00
2019-05-16T05:19:00.450Z,10.80
2019-05-16T05:21:31.408Z,10.70
2019-05-16T05:24:00.728Z,10.70
2019-05-16T05:26:30.678Z,10.90
2019-05-16T05:28:59.883Z,11.10
2019-05-16T05:31:34.388Z,11.20
2019-05-16T05:34:01.325Z,11.00
2019-05-16T05:36:30.629Z,11.10
2019-05-16T05:39:08.986Z,11.00
2019-05-16T05:41:31.605Z,11.00
2019-05-16T05:44:00.837Z,11.10
2019-05-16T05:46:31.732Z,11.10
2019-05-16T05:49:01.057Z,11.00
2019-05-16T05:51:30.313Z,11.20
2019-05-16T05:54:00.202Z,11.00
2019-05-16T05:56:30.531Z,11.10
2019-05-16T05:59:01.566Z,11.20
2019-05-16T06:01:31.707Z,11.30
2019-05-16T06:04:00.946Z,11.40
2019-05-16T06:06:30.454Z,11.50
2019-05-16T06:09:00.665Z,11.50
2019-05-16T06:11:30.751Z,11.70
2019-05-16T06:14:00.521Z,11.80
2019-05-16T06:16:30.854Z,11.90
2019-05-16T06:19:00.934Z,11.80
2019-05-16T06:21:33.419Z,11.70
2019-05-16T06:24:01.098Z,11.80
2019-05-16T06:26:30.415Z,11.60
2019-05-16T06:29:00.677Z,11.80
2019-05-16T06:31:31.330Z,12.00
2019-05-16T06:34:08.468Z,11.80
2019-05-16T06:36:31.682Z,11.90
2019-05-16T06:39:00.856Z,12.20
2019-05-16T06:41:30.458Z,12.30
2019-05-16T06:44:00.010Z,12.40
2019-05-16T06:46:30.696Z,12.60
2019-05-16T06:49:00.271Z,12.60
2019-05-16T06:51:30.534Z,12.50
2019-05-16T06:54:00.534Z,12.50
2019-05-16T06:56:30.839Z,12.70
2019-05-16T06:59:00.869Z,12.70
2019-05-16T07:01:30.458Z,12.80
2019-05-16T07:04:00.198Z,12.70
2019-05-16T07:06:50.548Z,13.00
2019-05-16T07:09:01.150Z,13.10
2019-05-16T07:11:30.690Z,13.40
2019-05-16T07:14:00.587Z,13.40
2019-05-16T07:16:30.189Z,13.10
2019-05-16T07:19:00.810Z,13.10
2019-05-16T07:21:31.228Z,13.20
2019-05-16T07:24:00.615Z,13.60
2019-05-16T07:26:31.004Z,13.50
2019-05-16T07:29:00.487Z,13.50
2019-05-16T07:31:30.191Z,13.70
2019-05-16T07:34:00.785Z,13.90
2019-05-16T07:36:31.425Z,13.60
2019-05-16T07:39:00.954Z,13.50
2019-05-16T07:41:31.042Z,14.10
2019-05-16T07:44:01.066Z,14.30
2019-05-16T07:46:31.513Z,14.50
2019-05-16T07:49:01.332Z,14.10
2019-05-16T07:51:31.148Z,14.00
2019-05-16T07:54:00.352Z,14.00
2019-05-16T07:56:31.007Z,14.30
2019-05-16T07:59:00.975Z,14.40
2019-05-16T08:01:30.883Z,14.00
2019-05-16T08:04:00.487Z,14.30
2019-05-16T08:06:33.664Z,14.70
2019-05-16T08:09:01.065Z,14.60
2019-05-16T08:11:30.645Z,14.60
2019-05-16T08:14:00.979Z,14.80
2019-05-16T08:16:30.727Z,14.40
2019-05-16T08:21:31.352Z,15.40
2019-05-16T08:24:07.035Z,15.90
2019-05-16T08:26:33.991Z,16.00
2019-05-16T08:29:02.953Z,15.60
2019-05-16T08:31:32.242Z,15.30
2019-05-16T08:34:01.951Z,15.30
2019-05-16T08:36:31.485Z,15.30
2019-05-16T08:39:01.245Z,15.30
2019-05-16T08:41:31.717Z,15.40
2019-05-16T08:44:01.490Z,14.70
2019-05-16T08:46:32.269Z,14.50
2019-05-16T08:49:01.933Z,14.50
2019-05-16T08:51:33.671Z,15.30
2019-05-16T08:54:02.540Z,15.40
2019-05-16T08:56:32.220Z,15.50
2019-05-16T08:59:03.167Z,15.10
2019-05-16T09:01:34.989Z,15.10
2019-05-16T09:04:03.487Z,15.60
2019-05-16T09:06:32.754Z,15.50
2019-05-16T09:09:12.380Z,15.70
2019-05-16T09:10:26.224Z,15.20
2019-05-16T09:11:41.419Z,16.20
2019-05-16T09:14:03.975Z,16.20
2019-05-16T09:16:33.402Z,16.30
2019-05-16T09:19:02.575Z,16.40
2019-05-16T09:21:31.749Z,16.40
2019-05-16T09:24:01.002Z,16.60
2019-05-16T09:26:30.193Z,16.00
2019-05-16T09:28:59.818Z,16.60
2019-05-16T09:31:29.130Z,16.40
2019-05-16T09:33:58.573Z,16.40
2019-05-16T09:36:28.301Z,16.50
2019-05-16T09:38:57.952Z,15.80
2019-05-16T09:41:46.275Z,16.20
2019-05-16T09:43:59.337Z,16.00
2019-05-16T09:46:28.875Z,16.60
2019-05-16T09:49:15.851Z,16.50
2019-05-16T09:51:29.342Z,17.10
2019-05-16T09:53:58.616Z,17.20
2019-05-16T09:56:27.933Z,17.40
2019-05-16T09:58:57.530Z,17.20
2019-05-16T10:01:27.584Z,16.70
2019-05-16T10:03:57.059Z,17.00
2019-05-16T10:06:27.594Z,16.90
2019-05-16T10:08:57.074Z,16.70
2019-05-16T10:11:31.308Z,17.10
2019-05-16T10:13:57.530Z,17.00
2019-05-16T10:16:27.500Z,16.70
2019-05-16T10:18:57.244Z,17.30
2019-05-16T10:21:27.159Z,17.60
2019-05-16T10:23:56.550Z,18.30
2019-05-16T10:26:27.784Z,18.40
2019-05-16T10:28:57.848Z,17.80
2019-05-16T10:31:41.300Z,16.50
2019-05-16T10:33:59.109Z,16.50
2019-05-16T10:36:28.311Z,15.90
2019-05-16T10:38:59.157Z,16.20
2019-05-16T10:41:28.582Z,16.60
2019-05-16T10:43:57.810Z,17.60
2019-05-16T10:46:27.255Z,18.10
2019-05-16T10:48:57.785Z,18.10
2019-05-16T10:51:27.228Z,17.30
2019-05-16T10:54:09.006Z,17.70
2019-05-16T10:56:27.640Z,18.30
2019-05-16T10:59:26.025Z,18.00
2019-05-16T11:01:31.211Z,18.60
2019-05-16T11:03:59.137Z,18.00
2019-05-16T11:06:29.273Z,17.50
2019-05-16T11:08:58.841Z,17.90
2019-05-16T11:11:28.168Z,18.00
2019-05-16T11:13:57.493Z,18.70
2019-05-16T11:16:27.559Z,19.10
2019-05-16T11:19:13.660Z,18.60
2019-05-16T11:21:27.910Z,18.20
2019-05-16T11:23:57.146Z,17.40
2019-05-16T11:26:29.904Z,18.60
2019-05-16T11:28:57.257Z,18.80
2019-05-16T11:31:26.808Z,18.80
2019-05-16T11:33:57.488Z,19.10
2019-05-16T11:36:27.167Z,19.70
2019-05-16T11:39:01.394Z,20.10
2019-05-16T11:41:27.714Z,19.60
2019-05-16T11:43:57.011Z,19.10
2019-05-16T11:46:28.073Z,18.60
2019-05-16T11:48:57.410Z,18.20
2019-05-16T11:51:27.405Z,18.70
2019-05-16T11:54:00.082Z,18.90
2019-05-16T11:56:27.636Z,18.20
2019-05-16T11:58:57.189Z,17.70
2019-05-16T12:01:27.580Z,17.50
2019-05-16T12:03:57.665Z,17.60
2019-05-16T12:06:27.113Z,18.60
2019-05-16T12:08:56.454Z,18.90
2019-05-16T12:11:27.481Z,19.20
2019-05-16T12:13:57.046Z,18.80
2019-05-16T12:16:27.521Z,18.40
2019-05-16T12:18:57.271Z,18.90
2019-05-16T12:21:28.897Z,20.20
2019-05-16T12:23:59.425Z,20.20
2019-05-16T12:26:29.017Z,20.00
2019-05-16T12:28:58.287Z,20.10
2019-05-16T12:31:27.875Z,20.30
2019-05-16T12:33:59.782Z,20.70
2019-05-16T12:36:31.563Z,19.60
2019-05-16T12:39:02.994Z,19.10
2019-05-16T12:41:32.289Z,18.10
2019-05-16T12:44:07.596Z,17.90
2019-05-16T12:46:37.073Z,18.20
2019-05-16T12:49:09.098Z,18.40
2019-05-16T12:51:38.921Z,18.80
2019-05-16T12:54:08.211Z,18.90
2019-05-16T12:56:40.380Z,19.80
2019-05-16T12:59:09.942Z,20.80
2019-05-16T13:01:39.220Z,19.50
2019-05-16T13:04:12.021Z,19.30
2019-05-16T13:06:39.634Z,18.70
2019-05-16T13:09:18.454Z,17.90
2019-05-16T13:11:48.572Z,18.40
2019-05-16T13:14:18.642Z,19.00
2019-05-16T13:16:48.957Z,18.80
2019-05-16T13:19:18.675Z,18.30
2019-05-16T13:21:48.761Z,18.20
2019-05-16T13:24:22.147Z,18.00
2019-05-16T13:26:51.753Z,17.60
2019-05-16T13:29:22.909Z,17.90
2019-05-16T13:31:52.250Z,18.30
2019-05-16T13:34:21.516Z,17.60
2019-05-16T13:36:51.055Z,17.30
2019-05-16T13:39:20.229Z,17.30
2019-05-16T13:41:51.355Z,17.50
2019-05-16T13:44:23.112Z,18.30
2019-05-16T13:46:51.875Z,19.10
2019-05-16T13:49:21.360Z,19.70
2019-05-16T13:51:50.621Z,18.20
2019-05-16T13:54:20.337Z,17.80
2019-05-16T13:56:49.846Z,17.50
2019-05-16T13:59:19.080Z,17.70
2019-05-16T14:01:48.292Z,18.00
2019-05-16T14:04:17.683Z,18.40
2019-05-16T14:06:47.684Z,17.70
2019-05-16T14:09:17.183Z,18.90
2019-05-16T14:11:46.615Z,19.70
2019-05-16T14:14:25.563Z,19.90
2019-05-16T14:16:47.194Z,19.30
2019-05-16T14:19:17.547Z,18.70
2019-05-16T14:21:47.870Z,19.40
2019-05-16T14:24:18.020Z,20.30
2019-05-16T14:26:47.519Z,20.50
2019-05-16T14:29:17.638Z,19.50
2019-05-16T14:31:47.387Z,19.00
2019-05-16T14:34:18.072Z,19.60
2019-05-16T14:36:48.207Z,20.40
2019-05-16T14:39:19.520Z,20.60
2019-05-16T14:41:48.307Z,20.80
2019-05-16T14:44:18.539Z,21.40
2019-05-16T14:46:49.256Z,21.20
2019-05-16T14:49:19.401Z,22.40
2019-05-16T14:51:49.267Z,23.10
2019-05-16T14:54:19.785Z,23.30
2019-05-16T14:56:50.824Z,24.00
2019-05-16T14:59:20.107Z,24.20
2019-05-16T15:01:49.675Z,23.00
2019-05-16T15:04:18.957Z,24.20
2019-05-16T15:06:48.535Z,23.40
2019-05-16T15:09:17.925Z,22.60
2019-05-16T15:11:47.066Z,23.80
2019-05-16T15:14:17.348Z,24.70
2019-05-16T15:16:49.701Z,26.40
2019-05-16T15:19:18.841Z,23.80
2019-05-16T15:21:47.974Z,22.30
2019-05-16T15:24:17.798Z,21.50
2019-05-16T15:26:47.532Z,20.80
2019-05-16T15:29:16.743Z,20.10
2019-05-16T15:31:46.875Z,20.50
2019-05-16T15:34:16.296Z,20.10
2019-05-16T15:36:46.781Z,19.20
2019-05-16T15:39:17.008Z,19.30
2019-05-16T15:41:46.461Z,18.90
2019-05-16T15:44:17.107Z,18.70
2019-05-16T15:46:47.848Z,18.50
2019-05-16T15:49:17.624Z,18.40
2019-05-16T15:51:47.745Z,18.30
2019-05-16T15:54:21.293Z,18.20
2019-05-16T15:56:51.652Z,18.20
2019-05-16T15:59:21.247Z,18.10
2019-05-16T16:01:50.743Z,18.30
2019-05-16T16:04:20.070Z,18.50
2019-05-16T16:06:49.420Z,18.50
2019-05-16T16:09:19.083Z,18.70
2019-05-16T16:11:48.796Z,18.50
2019-05-16T16:14:18.758Z,18.80
2019-05-16T16:16:48.076Z,18.30
2019-05-16T16:19:17.592Z,18.70
2019-05-16T16:21:47.402Z,18.10
2019-05-16T16:24:19.090Z,18.20
2019-05-16T16:26:47.897Z,17.90
2019-05-16T16:29:17.133Z,17.60
2019-05-16T16:31:47.669Z,17.30
2019-05-16T16:34:17.742Z,17.30
2019-05-16T16:36:47.548Z,17.30
2019-05-16T16:39:16.928Z,16.90
2019-05-16T16:41:47.893Z,17.20
2019-05-16T16:44:17.700Z,17.40
2019-05-16T16:46:47.255Z,17.10
2019-05-16T16:49:17.287Z,17.00
2019-05-16T16:51:48.115Z,16.80
2019-05-16T16:54:17.409Z,16.80
2019-05-16T16:56:47.319Z,16.70
2019-05-16T16:59:17.244Z,16.60
2019-05-16T17:01:47.052Z,16.50
2019-05-16T17:04:17.448Z,16.60
2019-05-16T17:06:47.037Z,16.50
2019-05-16T17:09:16.701Z,16.40
2019-05-16T17:11:46.552Z,16.20
2019-05-16T17:14:17.347Z,16.30
2019-05-16T17:16:47.532Z,16.10
2019-05-16T17:19:17.146Z,15.90
2019-05-16T17:21:55.378Z,15.90
2019-05-16T17:24:17.623Z,15.90
2019-05-16T17:26:47.826Z,15.60
2019-05-16T17:29:17.586Z,15.70
2019-05-16T17:31:53.652Z,15.70
2019-05-16T17:34:18.090Z,15.60
2019-05-16T17:36:47.417Z,15.60
2019-05-16T17:39:18.245Z,15.60
2019-05-16T17:41:54.727Z,15.50
2019-05-16T17:44:20.237Z,15.40
2019-05-16T17:46:49.429Z,15.40
2019-05-16T17:49:18.965Z,15.40
2019-05-16T17:51:48.849Z,15.30
2019-05-16T17:54:18.793Z,15.20
2019-05-16T17:56:49.174Z,15.20
2019-05-16T17:59:18.448Z,15.10
2019-05-16T18:01:47.978Z,15.10
2019-05-16T18:04:17.366Z,15.20
2019-05-16T18:06:47.275Z,15.00
2019-05-16T18:09:17.049Z,15.10
2019-05-16T18:11:46.924Z,15.20
2019-05-16T18:14:17.342Z,15.00
2019-05-16T18:16:53.649Z,15.10
2019-05-16T18:19:17.787Z,15.10
2019-05-16T18:21:47.261Z,14.80
2019-05-16T18:24:16.811Z,14.80
2019-05-16T18:26:46.143Z,14.80
2019-05-16T18:29:16.357Z,14.70
2019-05-16T18:31:47.198Z,14.50
2019-05-16T18:34:17.023Z,14.30
2019-05-16T18:36:46.773Z,14.20
2019-05-16T18:39:16.080Z,14.10
2019-05-16T18:41:47.176Z,14.00
2019-05-16T18:44:16.693Z,13.90
2019-05-16T18:46:47.106Z,14.20
2019-05-16T18:49:16.433Z,14.20
2019-05-16T18:51:46.539Z,14.00
2019-05-16T18:54:17.359Z,13.80
2019-05-16T18:56:47.410Z,13.90
2019-05-16T18:59:17.057Z,13.80
2019-05-16T19:01:46.911Z,13.60
2019-05-16T19:04:17.626Z,13.70
2019-05-16T19:06:47.329Z,13.60
2019-05-16T19:09:16.731Z,13.70
2019-05-16T19:11:46.203Z,13.50
2019-05-16T19:14:16.953Z,13.60
2019-05-16T19:16:48.945Z,13.50
2019-05-16T19:19:17.305Z,13.40
2019-05-16T19:21:46.472Z,13.40
2019-05-16T19:24:16.408Z,13.30
2019-05-16T19:26:47.026Z,13.50
2019-05-16T19:29:17.461Z,13.40
2019-05-16T19:31:49.908Z,13.20
2019-05-16T19:34:17.729Z,13.30
2019-05-16T19:36:47.138Z,13.30
2019-05-16T19:39:16.646Z,13.30
2019-05-16T19:41:46.584Z,13.20
2019-05-16T19:44:16.801Z,13.10
2019-05-16T19:46:46.845Z,13.20
2019-05-16T19:49:16.589Z,13.30
2019-05-16T19:51:48.503Z,13.30
2019-05-16T19:54:16.990Z,13.10
2019-05-16T19:56:46.958Z,13.00
2019-05-16T19:59:16.951Z,13.10
2019-05-16T20:01:46.444Z,13.00
2019-05-16T20:04:18.490Z,13.00
2019-05-16T20:06:47.853Z,12.80
2019-05-16T20:09:17.151Z,12.90
2019-05-16T20:11:46.546Z,12.70
2019-05-16T20:14:16.919Z,12.70
2019-05-16T20:16:47.180Z,12.80
2019-05-16T20:19:16.807Z,12.80
2019-05-16T20:21:47.618Z,12.70
2019-05-16T20:24:16.976Z,12.70
2019-05-16T20:26:46.512Z,12.60
2019-05-16T20:29:17.109Z,12.60
2019-05-16T20:31:47.546Z,12.60
2019-05-16T20:34:17.735Z,12.60
2019-05-16T20:36:47.024Z,12.60
2019-05-16T20:39:17.210Z,12.70
2019-05-16T20:41:47.501Z,12.60
2019-05-16T20:44:17.483Z,12.60
2019-05-16T20:46:49.410Z,12.40
2019-05-16T20:49:17.754Z,12.40
2019-05-16T20:51:49.940Z,12.40
2019-05-16T20:54:17.790Z,12.30
2019-05-16T20:56:49.377Z,12.30
2019-05-16T20:59:17.824Z,12.30
2019-05-16T21:01:49.222Z,12.30
2019-05-16T21:04:18.357Z,12.20
2019-05-16T21:06:57.410Z,12.10
2019-05-16T21:09:19.225Z,12.10
2019-05-16T21:11:50.081Z,12.10
2019-05-16T21:14:19.993Z,12.00
2019-05-16T21:16:49.580Z,12.10
2019-05-16T21:19:18.925Z,12.00
2019-05-16T21:21:48.158Z,12.10
2019-05-16T21:24:17.400Z,12.10
2019-05-16T21:26:46.620Z,12.00
2019-05-16T21:29:16.473Z,12.00
2019-05-16T21:31:47.349Z,12.20
2019-05-16T21:34:19.156Z,12.10
2019-05-16T21:36:48.449Z,12.10
2019-05-16T21:39:17.746Z,11.90
2019-05-16T21:41:47.570Z,11.90
2019-05-16T21:44:17.128Z,12.00
2019-05-16T21:46:46.919Z,11.80
2019-05-16T21:49:19.265Z,11.70
2019-05-16T21:51:47.289Z,11.60
2019-05-16T21:54:16.423Z,11.60
2019-05-16T21:56:46.788Z,11.50
2019-05-16T21:59:16.077Z,11.50
2019-05-16T22:01:47.323Z,11.50
2019-05-16T22:04:16.943Z,11.50
2019-05-16T22:06:47.465Z,11.60
2019-05-16T22:09:16.865Z,11.60
2019-05-16T22:11:46.540Z,11.70
2019-05-16T22:14:18.747Z,11.60
2019-05-16T22:16:47.961Z,11.70
2019-05-16T22:19:17.187Z,11.70
2019-05-16T22:21:46.801Z,11.60
2019-05-16T22:24:17.240Z,11.60
2019-05-16T22:26:46.768Z,11.50
2019-05-16T22:29:17.025Z,11.40
2019-05-16T22:31:47.111Z,11.50
2019-05-16T22:34:16.946Z,11.40
2019-05-16T22:36:49.084Z,11.50
2019-05-16T22:39:17.353Z,11.30
2019-05-16T22:41:46.699Z,11.20
2019-05-16T22:44:17.604Z,11.20
2019-05-16T22:46:47.080Z,11.20
2019-05-16T22:49:16.926Z,11.20
2019-05-16T22:51:46.264Z,11.30
2019-05-16T22:54:17.170Z,11.20
2019-05-16T22:56:46.549Z,11.10
2019-05-16T22:59:16.656Z,11.20
2019-05-16T23:01:46.296Z,11.20
2019-05-16T23:04:16.761Z,11.30
2019-05-16T23:06:46.090Z,11.30
2019-05-16T23:09:16.440Z,11.30
2019-05-16T23:11:46.013Z,11.30
2019-05-16T23:14:17.094Z,11.30
2019-05-16T23:16:46.503Z,11.20
2019-05-16T23:19:17.177Z,11.10
2019-05-16T23:21:47.515Z,11.10
2019-05-16T23:24:17.360Z,11.20
2019-05-16T23:26:46.963Z,11.10
2019-05-16T23:29:17.002Z,11.00
2019-05-16T23:31:47.188Z,10.90
2019-05-16T23:34:18.776Z,11.00
2019-05-16T23:36:47.783Z,10.90
2019-05-16T23:39:17.308Z,11.00
2019-05-16T23:41:47.420Z,11.00
2019-05-16T23:44:16.756Z,11.10
2019-05-16T23:46:47.064Z,11.10
2019-05-16T23:49:16.938Z,10.90
2019-05-16T23:51:47.295Z,10.80
2019-05-16T23:54:17.270Z,10.80
2019-05-16T23:56:46.637Z,10.80
2019-05-16T23:59:17.167Z,10.70
